Rimouski, Canada
Current Conditions -  °F | °C
As of 10:26 AM on Thursday 18 Dec 2014 (Local Time) from CYYY Reporting Station
Light Snow Light Snow  
Wind Chill: 14°   Ceiling: 400
Heat Index: 28°   Visibility: 0.62mi
Dew Point: 27°   Wind: 23mph
Humidity: 93%   Direction: 20°NNE
Pressure: 29.73"   Gusts: 30mph
Location:  48.45°N, 68.52°W
Report Text: CYYY 181526Z 02020G26KT 5/8SM R06/3500V5000FT/D -SN DRSN VV004 M02/M03 A2973 RMK SN8 SLP072
Loading
Personal Weather Stations






























Interactive Weather Map New forecast layout! Learn more

10-Day Weather Forecast

Advertisements
Track Severe Weather on mobile